createdAt,value
2018-03-19T00:03:37.027Z,101778.34
2018-03-19T00:08:37.999Z,101785.59
2018-03-19T00:13:38.956Z,101784.90
2018-03-19T00:18:39.912Z,101789.30
2018-03-19T00:23:40.845Z,101791.89
2018-03-19T00:28:41.824Z,101780.31
2018-03-19T00:33:42.762Z,101772.11
2018-03-19T00:38:43.748Z,101772.81
2018-03-19T00:43:44.665Z,101777.59
2018-03-19T00:48:45.606Z,101774.80
2018-03-19T00:53:46.526Z,101773.38
2018-03-19T00:58:47.477Z,101763.02
2018-03-19T01:03:48.407Z,101764.70
2018-03-19T01:08:49.330Z,101763.34
2018-03-19T01:13:50.266Z,101761.97
2018-03-19T01:18:51.206Z,101767.18
2018-03-19T01:23:52.141Z,101769.08
2018-03-19T01:28:53.123Z,101761.28
2018-03-19T01:33:54.045Z,101757.33
2018-03-19T01:38:54.965Z,101748.91
2018-03-19T01:43:55.895Z,101755.30
2018-03-19T01:48:56.834Z,101748.87
2018-03-19T01:53:57.760Z,101741.62
2018-03-19T01:58:58.713Z,101740.33
2018-03-19T02:04:00.312Z,101735.35
2018-03-19T02:09:01.256Z,101727.98
2018-03-19T02:14:02.198Z,101723.92
2018-03-19T02:19:03.135Z,101719.22
2018-03-19T02:24:04.125Z,101720.82
2018-03-19T02:29:05.052Z,101721.00
2018-03-19T02:34:05.979Z,101715.41
2018-03-19T02:39:06.942Z,101715.27
2018-03-19T02:44:07.871Z,101716.61
2018-03-19T02:49:08.801Z,101711.64
2018-03-19T02:54:09.780Z,101710.50
2018-03-19T02:59:10.713Z,101697.76
2018-03-19T03:04:12.550Z,101701.84
2018-03-19T03:09:13.497Z,101699.16
2018-03-19T03:14:14.442Z,101696.90
2018-03-19T03:19:15.373Z,101690.12
2018-03-19T03:24:17.281Z,101692.33
2018-03-19T03:29:18.256Z,101688.30
2018-03-19T03:34:19.189Z,101682.67
2018-03-19T03:39:20.116Z,101683.78
2018-03-19T03:44:21.055Z,101680.81
2018-03-19T03:49:21.980Z,101684.31
2018-03-19T03:54:22.914Z,101689.11
2018-03-19T03:59:23.839Z,101684.22
2018-03-19T04:04:24.767Z,101691.09
2018-03-19T04:09:25.690Z,101681.08
2018-03-19T04:14:26.635Z,101683.70
2018-03-19T04:19:27.548Z,101680.86
2018-03-19T04:24:28.480Z,101672.62
2018-03-19T04:29:29.449Z,101676.92
2018-03-19T04:34:30.378Z,101675.27
2018-03-19T04:39:31.300Z,101670.44
2018-03-19T04:44:32.246Z,101679.92
2018-03-19T04:49:33.152Z,101677.30
2018-03-19T04:54:34.086Z,101687.31
2018-03-19T04:59:35.022Z,101682.18
2018-03-19T05:04:35.945Z,101679.69
2018-03-19T05:09:36.906Z,101674.96
2018-03-19T05:14:37.903Z,101673.44
2018-03-19T05:19:38.804Z,101682.81
2018-03-19T05:24:39.754Z,101686.24
2018-03-19T05:29:40.720Z,101674.37
2018-03-19T05:34:41.655Z,101689.59
2018-03-19T05:39:42.605Z,101694.53
2018-03-19T05:44:43.567Z,101687.64
2018-03-19T05:49:44.524Z,101689.97
2018-03-19T05:54:45.460Z,101691.78
2018-03-19T05:59:46.386Z,101694.67
2018-03-19T06:04:47.332Z,101692.17
2018-03-19T06:09:48.295Z,101700.05
2018-03-19T06:14:49.250Z,101699.03
2018-03-19T06:19:50.188Z,101693.84
2018-03-19T06:24:51.139Z,101701.64
2018-03-19T06:29:52.136Z,101698.75
2018-03-19T06:34:53.082Z,101686.39
2018-03-19T06:39:54.023Z,101689.62
2018-03-19T06:44:55.028Z,101691.67
2018-03-19T06:49:55.960Z,101704.05
2018-03-19T06:54:56.879Z,101710.26
2018-03-19T06:59:57.836Z,101704.28
2018-03-19T07:04:58.781Z,101709.98
2018-03-19T07:09:59.736Z,101709.39
2018-03-19T07:15:00.666Z,101706.12
2018-03-19T07:20:01.594Z,101705.44
2018-03-19T07:25:02.569Z,101716.69
2018-03-19T07:30:03.625Z,101711.09
2018-03-19T07:35:04.562Z,101706.91
2018-03-19T07:40:05.513Z,101710.40
2018-03-19T07:45:06.477Z,101703.31
2018-03-19T07:50:07.452Z,101713.23
2018-03-19T07:55:08.380Z,101707.14
2018-03-19T08:00:09.334Z,101712.16
2018-03-19T08:05:10.266Z,101713.61
2018-03-19T08:10:11.192Z,101709.12
2018-03-19T08:15:12.124Z,101709.00
2018-03-19T08:20:13.848Z,101714.77
2018-03-19T08:25:14.804Z,101712.46
2018-03-19T08:30:15.798Z,101711.70
2018-03-19T08:35:16.761Z,101703.80
2018-03-19T08:40:17.726Z,101699.27
2018-03-19T08:45:18.655Z,101699.67
2018-03-19T08:50:19.622Z,101699.88
2018-03-19T08:55:20.573Z,101696.97
2018-03-19T09:00:21.527Z,101685.98
2018-03-19T09:05:22.465Z,101675.52
2018-03-19T09:10:23.400Z,101673.39
2018-03-19T09:15:24.342Z,101668.89
2018-03-19T09:20:25.276Z,101664.61
2018-03-19T09:25:26.250Z,101669.23
2018-03-19T09:30:27.249Z,101671.23
2018-03-19T09:35:28.217Z,101659.90
2018-03-19T09:40:30.065Z,101659.38
2018-03-19T09:45:31.005Z,101661.43
2018-03-19T09:50:31.973Z,101662.38
2018-03-19T09:55:32.947Z,101658.88
2018-03-19T10:00:33.888Z,101652.08
2018-03-19T10:05:34.840Z,101648.47
2018-03-19T10:10:35.782Z,101643.58
2018-03-19T10:15:36.741Z,101640.03
2018-03-19T10:20:37.693Z,101639.98
2018-03-19T10:25:38.664Z,101636.73
2018-03-19T10:30:39.654Z,101626.91
2018-03-19T10:35:40.615Z,101623.61
2018-03-19T10:40:41.555Z,101614.05
2018-03-19T10:45:42.554Z,101617.75
2018-03-19T10:50:43.530Z,101605.80
2018-03-19T10:55:44.488Z,101603.93
2018-03-19T11:00:45.741Z,101590.92
2018-03-19T11:05:49.645Z,101589.39
2018-03-19T11:10:50.597Z,101584.40
2018-03-19T11:15:51.553Z,101579.11
2018-03-19T11:20:52.861Z,101568.09
2018-03-19T11:25:53.858Z,101570.58
2018-03-19T11:30:54.828Z,101560.09
2018-03-19T11:35:55.790Z,101565.30
2018-03-19T11:40:56.746Z,101544.18
2018-03-19T11:45:57.688Z,101541.47
2018-03-19T11:50:58.625Z,101526.28
2018-03-19T11:55:59.609Z,101525.09
2018-03-19T12:01:00.550Z,101515.52
2018-03-19T12:28:27.525Z,101484.06
2018-03-19T12:33:28.531Z,101476.27
2018-03-19T12:38:30.374Z,101471.72
2018-03-19T12:43:31.340Z,101463.06
2018-03-19T12:48:32.296Z,101448.47
2018-03-19T12:53:33.986Z,101448.19
2018-03-19T12:58:34.950Z,101439.00
2018-03-19T13:03:35.897Z,101440.80
2018-03-19T13:08:36.875Z,101422.70
2018-03-19T13:13:37.818Z,101412.75
2018-03-19T13:18:38.781Z,101409.24
2018-03-19T13:23:39.766Z,101400.42
2018-03-19T13:28:40.706Z,101393.19
2018-03-19T13:33:41.701Z,101397.27
2018-03-19T13:38:42.634Z,101393.19
2018-03-19T13:43:43.549Z,101385.99
2018-03-19T13:48:44.475Z,101387.13
2018-03-19T13:53:45.401Z,101377.95
2018-03-19T13:58:46.363Z,101368.94
2018-03-19T14:03:48.094Z,101360.48
2018-03-19T14:08:49.653Z,101351.50
2018-03-19T14:13:50.592Z,101353.46
2018-03-19T14:18:51.554Z,101351.85
2018-03-19T14:23:52.493Z,101333.75
2018-03-19T14:28:53.437Z,101331.87
2018-03-19T14:33:54.453Z,101325.88
2018-03-19T14:38:55.382Z,101319.34
2018-03-19T14:43:56.329Z,101311.63
2018-03-19T14:48:57.305Z,101306.03
2018-03-19T14:53:58.246Z,101298.46
2018-03-19T14:58:59.218Z,101300.43
2018-03-19T15:04:01.154Z,101285.02
2018-03-19T15:09:02.112Z,101281.86
2018-03-19T15:14:03.047Z,101274.39
2018-03-19T15:19:04.025Z,101270.18
2018-03-19T15:24:04.997Z,101268.05
2018-03-19T15:29:05.937Z,101270.41
2018-03-19T15:34:06.927Z,101263.41
2018-03-19T15:39:07.869Z,101255.95
2018-03-19T15:44:08.824Z,101254.11
2018-03-19T15:49:09.776Z,101250.95
2018-03-19T15:54:10.725Z,101242.46
2018-03-19T15:59:11.671Z,101232.88
2018-03-19T16:04:12.649Z,101232.28
2018-03-19T16:09:13.618Z,101221.80
2018-03-19T16:14:14.589Z,101218.80
2018-03-19T16:19:15.591Z,101220.18
2018-03-19T16:24:16.540Z,101222.50
2018-03-19T16:29:17.521Z,101226.22
2018-03-19T16:34:18.550Z,101214.70
2018-03-19T16:39:19.504Z,101223.80
2018-03-19T16:44:20.482Z,101221.72
2018-03-19T16:49:21.474Z,101214.19
2018-03-19T16:54:22.431Z,101206.96
2018-03-19T16:59:23.470Z,101208.28
2018-03-19T17:04:24.348Z,101205.83
2018-03-19T17:09:25.310Z,101202.48
2018-03-19T17:14:26.264Z,101197.13
2018-03-19T17:19:27.200Z,101203.20
2018-03-19T17:24:35.102Z,101206.86
2018-03-19T17:29:36.868Z,101206.11
2018-03-19T17:34:38.751Z,101206.34
2018-03-19T17:39:39.725Z,101198.25
2018-03-19T17:44:40.699Z,101190.16
2018-03-19T17:49:41.651Z,101185.59
2018-03-19T17:54:42.604Z,101189.59
2018-03-19T17:59:43.573Z,101187.11
2018-03-19T18:04:44.552Z,101187.66
2018-03-19T18:09:45.674Z,101192.27
2018-03-19T18:14:47.635Z,101193.94
2018-03-19T18:19:48.650Z,101182.83
2018-03-19T18:24:49.654Z,101174.77
2018-03-19T18:29:50.638Z,101168.31
2018-03-19T18:34:51.701Z,101169.63
2018-03-19T18:39:52.695Z,101163.02
2018-03-19T18:45:00.528Z,101158.54
2018-03-19T18:50:01.540Z,101161.68
2018-03-19T18:55:02.563Z,101150.77
2018-03-19T19:00:03.591Z,101139.23
2018-03-19T19:05:04.583Z,101127.27
2018-03-19T19:10:05.549Z,101124.63
2018-03-19T19:15:06.612Z,101125.05
2018-03-19T19:20:07.583Z,101110.84
2018-03-19T19:25:08.535Z,101106.66
2018-03-19T19:30:09.526Z,101078.38
2018-03-19T19:35:10.541Z,101105.91
2018-03-19T19:40:11.529Z,101094.32
2018-03-19T19:45:12.476Z,101100.58
2018-03-19T19:50:13.447Z,101088.69
2018-03-19T19:55:14.452Z,101091.87
2018-03-19T20:00:15.465Z,101080.40
2018-03-19T20:05:16.449Z,101074.59
2018-03-19T20:10:17.492Z,101074.16
2018-03-19T20:15:18.525Z,101073.52
2018-03-19T20:20:19.509Z,101058.72
2018-03-19T20:25:20.529Z,101059.23
2018-03-19T20:30:21.562Z,101053.31
2018-03-19T20:35:22.613Z,101047.80
2018-03-19T20:40:23.610Z,101036.13
2018-03-19T20:45:24.590Z,101037.78
2018-03-19T20:50:25.561Z,101025.55
2018-03-19T20:55:26.537Z,101022.71
2018-03-19T21:00:27.521Z,101017.33
2018-03-19T21:05:28.517Z,101010.92
2018-03-19T21:10:29.501Z,100986.64
2018-03-19T21:15:30.457Z,100986.57
2018-03-19T21:20:31.437Z,100987.06
2018-03-19T21:25:32.405Z,100970.59
2018-03-19T21:30:33.570Z,100973.39
2018-03-19T21:35:34.573Z,100955.17
2018-03-19T21:40:35.537Z,100942.22
2018-03-19T21:45:36.488Z,100944.14
2018-03-19T21:50:37.441Z,100946.06
2018-03-19T21:55:38.410Z,100941.06
2018-03-19T22:00:39.381Z,100934.38
2018-03-19T22:05:40.347Z,100933.53
2018-03-19T22:10:41.296Z,100925.08
2018-03-19T22:15:42.261Z,100910.69
2018-03-19T22:20:43.230Z,100909.92
2018-03-19T22:25:44.204Z,100907.41
2018-03-19T22:30:45.214Z,100908.50
2018-03-19T22:35:46.193Z,100905.34
2018-03-19T22:40:47.114Z,100893.38
2018-03-19T22:45:48.071Z,100898.97
2018-03-19T22:50:49.004Z,100885.45
2018-03-19T22:55:50.653Z,100883.80
2018-03-19T23:00:51.613Z,100871.44
2018-03-19T23:05:52.553Z,100864.10
2018-03-19T23:10:53.476Z,100855.91
2018-03-19T23:15:54.432Z,100839.40
2018-03-19T23:20:55.347Z,100829.90
2018-03-19T23:25:56.279Z,100818.73
2018-03-19T23:30:57.263Z,100815.09
2018-03-19T23:35:58.243Z,100817.89
2018-03-19T23:40:59.161Z,100823.45
2018-03-19T23:46:00.089Z,100812.67
2018-03-19T23:51:01.031Z,100800.96
2018-03-19T23:56:01.959Z,100796.11
